createdAt,value
2018-02-08T00:01:46.559Z,88.00
2018-02-08T00:04:14.088Z,85.83
2018-02-08T00:06:42.418Z,73.87
2018-02-08T00:09:09.953Z,77.87
2018-02-08T00:11:38.274Z,71.63
2018-02-08T00:14:05.803Z,81.67
2018-02-08T00:16:33.410Z,76.90
2018-02-08T00:19:00.950Z,80.00
2018-02-08T00:21:28.518Z,74.20
2018-02-08T00:23:56.125Z,81.07
2018-02-08T00:26:24.449Z,84.47
2018-02-08T00:28:51.986Z,81.17
2018-02-08T00:31:19.552Z,76.30
2018-02-08T00:33:47.186Z,80.53
2018-02-08T00:36:15.509Z,76.83
2018-02-08T00:38:43.046Z,74.80
2018-02-08T00:41:10.593Z,90.33
2018-02-08T00:43:38.126Z,86.30
2018-02-08T00:46:06.455Z,82.37
2018-02-08T00:48:33.982Z,81.97
2018-02-08T00:51:01.624Z,76.53
2018-02-08T00:53:29.927Z,75.87
2018-02-08T00:55:57.493Z,97.00
2018-02-08T00:58:25.031Z,82.60
2018-02-08T01:00:53.357Z,81.10
2018-02-08T01:03:20.894Z,76.60
2018-02-08T01:05:48.712Z,87.60
2018-02-08T01:08:16.433Z,74.50
2018-02-08T01:10:43.993Z,87.00
2018-02-08T01:13:11.526Z,80.53
2018-02-08T01:15:39.089Z,82.07
2018-02-08T01:18:06.644Z,83.07
2018-02-08T01:20:34.966Z,75.37
2018-02-08T01:23:02.500Z,86.40
2018-02-08T01:25:30.074Z,89.50
2018-02-08T01:27:57.615Z,89.17
2018-02-08T01:30:25.148Z,80.03
2018-02-08T01:32:53.493Z,78.80
2018-02-08T01:35:21.065Z,81.30
2018-02-08T01:37:48.618Z,69.47
2018-02-08T01:40:16.158Z,84.63
2018-02-08T01:42:43.722Z,78.17
2018-02-08T01:45:11.260Z,91.13
2018-02-08T01:47:38.983Z,73.20
2018-02-08T01:50:07.282Z,80.20
2018-02-08T01:52:35.597Z,83.77
2018-02-08T01:55:03.153Z,77.53
2018-02-08T01:57:30.710Z,81.10
2018-02-08T01:59:58.246Z,67.90
2018-02-08T02:02:25.797Z,86.10
2018-02-08T02:04:53.346Z,87.63
2018-02-08T02:07:21.679Z,77.33
2018-02-08T02:09:49.233Z,80.43
2018-02-08T02:12:16.796Z,81.43
2018-02-08T02:14:44.337Z,81.90
2018-02-08T02:17:11.889Z,83.50
2018-02-08T02:19:39.425Z,81.77
2018-02-08T02:22:07.786Z,89.47
2018-02-08T02:24:35.314Z,75.20
2018-02-08T02:27:02.985Z,73.60
2018-02-08T02:29:31.313Z,81.07
2018-02-08T02:31:58.874Z,85.10
2018-02-08T02:34:26.406Z,81.30
2018-02-08T02:36:53.966Z,74.77
2018-02-08T02:39:21.498Z,84.30
2018-02-08T02:41:49.049Z,76.70
2018-02-08T02:44:16.577Z,83.87
2018-02-08T02:46:44.475Z,80.93
2018-02-08T02:49:12.011Z,74.57
2018-02-08T02:51:39.570Z,86.37
2018-02-08T02:54:07.105Z,97.90
2018-02-08T02:56:35.438Z,96.40
2018-02-08T02:59:03.775Z,86.00
2018-02-08T03:01:31.339Z,86.53
2018-02-08T03:03:58.874Z,87.40
2018-02-08T03:06:27.179Z,95.37
2018-02-08T03:08:54.754Z,86.03
2018-02-08T03:11:22.293Z,97.97
2018-02-08T03:13:49.849Z,89.40
2018-02-08T03:16:17.390Z,80.75
2018-02-08T03:18:46.330Z,97.13
2018-02-08T03:21:14.270Z,90.23
2018-02-08T03:23:41.816Z,98.57
2018-02-08T03:26:10.138Z,94.27
2018-02-08T03:28:37.702Z,85.10
2018-02-08T03:31:05.708Z,86.43
2018-02-08T03:33:34.097Z,94.55
2018-02-08T03:36:02.405Z,83.33
2018-02-08T03:38:29.934Z,98.17
2018-02-08T03:40:58.264Z,83.67
2018-02-08T03:43:25.810Z,89.63
2018-02-08T03:45:53.365Z,89.93
2018-02-08T03:48:20.901Z,74.67
2018-02-08T03:50:49.236Z,92.00
2018-02-08T03:53:16.782Z,95.17
2018-02-08T03:55:44.319Z,91.53
2018-02-08T03:58:11.917Z,94.43
2018-02-08T04:00:39.482Z,92.97
2018-02-08T04:03:07.047Z,93.73
2018-02-08T04:05:34.599Z,94.60
2018-02-08T04:08:02.183Z,97.67
2018-02-08T04:10:30.493Z,97.60
2018-02-08T04:12:58.022Z,86.13
2018-02-08T04:15:25.578Z,92.77
2018-02-08T04:17:53.118Z,84.43
2018-02-08T04:20:20.778Z,97.10
2018-02-08T04:22:48.322Z,85.53
2018-02-08T04:25:15.885Z,101.10
2018-02-08T04:27:43.427Z,86.43
2018-02-08T04:30:11.040Z,92.67
2018-02-08T04:32:38.571Z,94.70
2018-02-08T04:35:06.103Z,90.47
2018-02-08T04:37:33.670Z,100.50
2018-02-08T04:40:12.981Z,93.63
2018-02-08T04:42:52.548Z,96.50
2018-02-08T04:45:31.978Z,87.97
2018-02-08T04:48:07.174Z,104.57
2018-02-08T04:50:35.483Z,99.30
2018-02-08T04:53:03.061Z,92.87
2018-02-08T04:55:30.619Z,102.83
2018-02-08T04:57:58.166Z,96.03
2018-02-08T05:00:25.795Z,86.80
2018-02-08T05:02:58.625Z,94.57
2018-02-08T05:05:26.183Z,97.37
2018-02-08T05:07:53.710Z,94.40
2018-02-08T05:10:22.070Z,101.23
2018-02-08T05:12:49.610Z,95.80
2018-02-08T05:15:17.165Z,100.53
2018-02-08T05:17:44.700Z,95.40
2018-02-08T05:20:12.317Z,92.03
2018-02-08T05:22:40.630Z,86.40
2018-02-08T05:25:08.190Z,113.63
2018-02-08T05:27:35.726Z,98.30
2018-02-08T05:30:04.094Z,98.57
2018-02-08T05:32:35.897Z,92.90
2018-02-08T05:35:03.458Z,103.60
2018-02-08T05:37:31.015Z,91.73
2018-02-08T05:39:58.546Z,97.50
2018-02-08T05:42:26.875Z,95.63
2018-02-08T05:44:54.412Z,91.50
2018-02-08T05:47:22.075Z,84.53
2018-02-08T05:49:49.620Z,98.47
2018-02-08T05:52:17.154Z,97.33
2018-02-08T05:54:45.482Z,92.17
2018-02-08T05:57:13.043Z,85.60
2018-02-08T05:59:40.598Z,92.07
2018-02-08T06:02:08.130Z,97.20
2018-02-08T06:04:35.916Z,101.40
2018-02-08T06:07:03.455Z,88.20
2018-02-08T06:09:31.257Z,93.40
2018-02-08T06:11:58.818Z,92.97
2018-02-08T06:14:26.355Z,93.23
2018-02-08T06:16:53.905Z,103.60
2018-02-08T06:19:21.446Z,96.33
2018-02-08T06:21:49.020Z,88.90
2018-02-08T06:24:16.568Z,96.00
2018-02-08T06:26:44.142Z,93.07
2018-02-08T06:29:11.674Z,93.47
2018-02-08T06:52:54.810Z,114.32
2018-02-08T06:55:22.398Z,112.17
2018-02-08T06:57:50.730Z,108.53
2018-02-08T07:00:18.339Z,125.25
2018-02-08T07:02:46.689Z,102.30
2018-02-08T07:05:14.262Z,116.00
2018-02-08T07:07:41.827Z,98.68
2018-02-08T07:10:09.366Z,91.20
2018-02-08T07:12:36.930Z,106.37
2018-02-08T07:15:04.467Z,96.60
2018-02-08T07:17:32.027Z,92.40
2018-02-08T07:19:59.571Z,97.90
2018-02-08T07:22:27.143Z,105.33
2018-02-08T07:24:54.694Z,112.50
2018-02-08T07:27:22.254Z,100.80
2018-02-08T07:29:49.790Z,98.43
2018-02-08T07:32:18.132Z,120.20
2018-02-08T07:34:45.674Z,99.90
2018-02-08T07:37:13.210Z,93.10
2018-02-08T07:39:40.776Z,90.73
2018-02-08T07:42:08.310Z,90.53
2018-02-08T07:44:36.635Z,94.20
2018-02-08T07:47:04.194Z,110.53
2018-02-08T07:49:31.753Z,97.37
2018-02-08T07:51:59.297Z,108.50
2018-02-08T07:54:26.898Z,107.13
2018-02-08T07:56:54.434Z,94.60
2018-02-08T07:59:21.983Z,91.97
2018-02-08T08:01:50.167Z,107.50
2018-02-08T08:04:17.766Z,100.83
2018-02-08T08:06:46.085Z,103.10
2018-02-08T08:09:13.637Z,90.37
2018-02-08T08:11:41.389Z,102.80
2018-02-08T08:14:08.998Z,93.43
2018-02-08T08:16:36.533Z,86.13
2018-02-08T08:19:04.094Z,99.93
2018-02-08T08:21:31.639Z,93.13
2018-02-08T08:23:59.201Z,94.03
2018-02-08T08:26:26.742Z,100.10
2018-02-08T08:28:55.189Z,102.97
2018-02-08T08:31:23.509Z,79.80
2018-02-08T08:33:51.070Z,86.13
2018-02-08T08:36:18.602Z,97.33
2018-02-08T08:38:46.169Z,91.83
2018-02-08T08:41:14.517Z,87.47
2018-02-08T08:43:42.171Z,88.53
2018-02-08T08:46:09.707Z,90.30
2018-02-08T08:48:37.286Z,88.63
2018-02-08T08:51:04.834Z,85.73
2018-02-08T08:53:32.437Z,91.53
2018-02-08T08:55:59.978Z,92.13
2018-02-08T08:58:27.562Z,80.90
2018-02-08T09:00:55.865Z,89.50
2018-02-08T09:03:23.418Z,88.47
2018-02-08T09:05:51.713Z,86.80
2018-02-08T09:08:19.270Z,88.43
2018-02-08T09:10:46.806Z,87.63
2018-02-08T09:13:15.129Z,87.57
2018-02-08T09:15:42.657Z,94.37
2018-02-08T09:18:10.223Z,89.33
2018-02-08T09:20:37.756Z,101.47
2018-02-08T09:23:06.090Z,84.83
2018-02-08T09:25:33.678Z,86.10
2018-02-08T09:28:01.226Z,85.17
2018-02-08T09:30:28.759Z,88.20
2018-02-08T09:32:56.339Z,89.83
2018-02-08T09:35:24.692Z,100.17
2018-02-08T09:37:52.236Z,91.23
2018-02-08T09:40:19.874Z,88.53
2018-02-08T09:42:47.457Z,92.87
2018-02-08T09:45:14.999Z,93.33
2018-02-08T09:47:43.293Z,86.67
2018-02-08T09:50:10.850Z,79.10
2018-02-08T09:52:39.155Z,84.20
2018-02-08T09:55:06.714Z,86.30
2018-02-08T09:57:35.010Z,85.93
2018-02-08T10:00:02.566Z,90.43
2018-02-08T10:02:30.103Z,93.03
2018-02-08T10:04:57.678Z,88.80
2018-02-08T10:07:25.213Z,85.10
2018-02-08T10:09:52.809Z,89.30
2018-02-08T10:12:20.322Z,98.63
2018-02-08T10:14:48.805Z,89.70
2018-02-08T10:17:16.338Z,86.67
2018-02-08T10:19:43.890Z,87.80
2018-02-08T10:22:11.421Z,82.20
2018-02-08T10:24:38.981Z,86.60
2018-02-08T10:27:06.583Z,88.40
2018-02-08T10:29:35.115Z,79.40
2018-02-08T10:32:02.649Z,79.47
2018-02-08T10:34:30.211Z,84.73
2018-02-08T10:36:57.782Z,86.27
2018-02-08T10:39:25.338Z,86.57
2018-02-08T10:41:53.159Z,91.53
2018-02-08T10:44:21.393Z,91.30
2018-02-08T10:46:49.147Z,89.47
2018-02-08T10:49:16.712Z,90.43
2018-02-08T10:51:44.257Z,97.87
2018-02-08T10:54:11.785Z,87.33
2018-02-08T10:56:39.345Z,95.67
2018-02-08T10:59:06.881Z,95.47
2018-02-08T11:01:34.437Z,89.37
2018-02-08T11:04:01.967Z,91.70
2018-02-08T11:06:29.528Z,87.73
2018-02-08T11:08:57.059Z,83.47
2018-02-08T11:11:25.386Z,94.90
2018-02-08T11:13:52.910Z,83.47
2018-02-08T11:16:20.526Z,87.33
2018-02-08T11:18:48.064Z,97.50
2018-02-08T11:21:15.638Z,88.67
2018-02-08T11:23:43.169Z,91.90
2018-02-08T11:26:10.701Z,87.50
2018-02-08T11:28:39.015Z,93.20
2018-02-08T11:31:06.551Z,87.87
2018-02-08T11:33:34.112Z,86.80
2018-02-08T11:36:01.642Z,88.30
2018-02-08T11:38:29.965Z,95.07
2018-02-08T11:40:57.497Z,93.87
2018-02-08T11:43:25.091Z,93.17
2018-02-08T11:45:52.721Z,95.00
2018-02-08T11:48:20.286Z,101.23
2018-02-08T11:50:47.823Z,88.63
2018-02-08T11:53:16.144Z,95.47
2018-02-08T11:55:43.677Z,89.93
2018-02-08T11:58:11.227Z,92.83
2018-02-08T12:00:39.540Z,89.33
2018-02-08T12:03:07.884Z,98.97
2018-02-08T12:05:36.188Z,88.27
2018-02-08T12:08:03.744Z,86.00
2018-02-08T12:10:31.281Z,93.67
2018-02-08T12:12:59.630Z,100.47
2018-02-08T12:15:27.171Z,89.67
2018-02-08T12:17:54.700Z,88.13
2018-02-08T12:20:22.255Z,87.97
2018-02-08T12:22:49.785Z,98.87
2018-02-08T12:25:18.110Z,82.73
2018-02-08T12:27:45.634Z,84.23
2018-02-08T12:30:13.958Z,91.33
2018-02-08T12:32:42.253Z,90.60
2018-02-08T12:35:09.816Z,86.83
2018-02-08T12:37:37.361Z,84.97
2018-02-08T12:40:04.922Z,96.37
2018-02-08T12:42:32.485Z,81.77
2018-02-08T12:45:00.044Z,83.27
2018-02-08T12:47:27.592Z,79.30
2018-02-08T12:49:55.157Z,87.90
2018-02-08T12:52:22.684Z,90.87
2018-02-08T12:54:50.243Z,80.50
2018-02-08T12:57:17.774Z,84.00
2018-02-08T12:59:46.106Z,84.70
2018-02-08T13:02:13.664Z,85.77
2018-02-08T13:04:41.222Z,77.73
2018-02-08T13:07:08.754Z,102.57
2018-02-08T13:09:36.315Z,93.47
2018-02-08T13:12:03.847Z,86.50
2018-02-08T13:14:32.172Z,84.47
2018-02-08T13:16:59.706Z,82.17
2018-02-08T13:19:28.026Z,76.40
2018-02-08T13:21:55.554Z,87.97
2018-02-08T13:24:23.116Z,80.97
2018-02-08T13:26:50.655Z,90.10
2018-02-08T13:29:18.986Z,82.70
2018-02-08T13:31:48.373Z,73.13
2018-02-08T13:34:15.930Z,78.90
2018-02-08T13:36:44.259Z,82.43
2018-02-08T13:39:27.475Z,71.43
2018-02-08T13:41:55.010Z,71.40
2018-02-08T13:44:22.577Z,81.73
2018-02-08T13:46:50.914Z,71.53
2018-02-08T13:49:24.231Z,74.27
2018-02-08T13:51:54.436Z,72.97
2018-02-08T13:57:29.291Z,78.97
2018-02-08T14:00:03.350Z,69.07
2018-02-08T14:02:35.818Z,70.17
2018-02-08T14:05:03.379Z,85.60
2018-02-08T14:07:30.916Z,72.17
2018-02-08T14:09:58.539Z,78.27
2018-02-08T14:12:26.832Z,72.60
2018-02-08T14:14:54.391Z,81.23
2018-02-08T14:17:22.189Z,68.13
2018-02-08T14:19:49.769Z,75.50
2018-02-08T14:22:17.302Z,80.17
2018-02-08T14:24:44.854Z,74.53
2018-02-08T14:27:12.393Z,81.17
2018-02-08T14:29:39.948Z,81.90
2018-02-08T14:32:07.477Z,75.43
2018-02-08T14:34:35.047Z,79.20
2018-02-08T14:37:03.346Z,80.50
2018-02-08T14:39:30.905Z,92.70
2018-02-08T14:41:58.438Z,75.63
2018-02-08T14:44:26.770Z,67.17
2018-02-08T14:46:54.306Z,73.20
2018-02-08T14:49:21.870Z,76.93
2018-02-08T14:51:49.416Z,74.40
2018-02-08T14:54:16.981Z,68.87
2018-02-08T14:56:44.515Z,71.43
2018-02-08T14:59:12.075Z,74.70
2018-02-08T15:01:40.382Z,74.00
2018-02-08T15:04:07.911Z,79.93
2018-02-08T15:06:36.238Z,83.13
2018-02-08T15:09:03.859Z,72.73
2018-02-08T15:11:32.189Z,71.23
2018-02-08T15:13:59.773Z,74.47
2018-02-08T15:16:27.338Z,75.17
2018-02-08T15:18:54.882Z,77.97
2018-02-08T15:21:22.459Z,75.20
2018-02-08T15:23:50.002Z,74.80
2018-02-08T15:26:17.561Z,83.07
2018-02-08T15:28:45.094Z,81.73
2018-02-08T15:31:12.700Z,79.73
2018-02-08T15:33:40.245Z,69.83
2018-02-08T15:36:07.803Z,79.43
2018-02-08T15:38:35.355Z,71.53
2018-02-08T15:41:02.923Z,76.10
2018-02-08T15:43:30.458Z,69.13
2018-02-08T15:45:58.021Z,79.67
2018-02-08T15:48:25.558Z,80.97
2018-02-08T15:50:53.146Z,66.47
2018-02-08T15:53:20.686Z,80.40
2018-02-08T15:55:48.523Z,78.43
2018-02-08T15:58:16.339Z,75.63
2018-02-08T16:00:44.012Z,75.57
2018-02-08T16:03:11.613Z,83.27
2018-02-08T16:05:39.954Z,76.17
2018-02-08T16:08:07.493Z,82.63
2018-02-08T16:10:35.056Z,82.27
2018-02-08T16:13:02.592Z,89.17
2018-02-08T16:15:30.284Z,78.13
2018-02-08T16:17:57.826Z,87.60
2018-02-08T16:20:25.379Z,86.83
2018-02-08T16:22:52.917Z,89.80
2018-02-08T16:25:21.239Z,85.10
2018-02-08T16:27:48.814Z,77.63
2018-02-08T16:30:16.374Z,79.53
2018-02-08T16:32:43.910Z,76.23
2018-02-08T16:35:11.462Z,84.43
2018-02-08T16:37:38.993Z,84.07
2018-02-08T16:40:07.317Z,90.47
2018-02-08T16:42:34.874Z,93.03
2018-02-08T16:45:02.426Z,87.37
2018-02-08T16:47:29.968Z,83.07
2018-02-08T16:49:57.517Z,90.87
2018-02-08T16:52:25.047Z,93.37
2018-02-08T16:54:52.646Z,125.30
2018-02-08T16:57:20.239Z,108.53
2018-02-08T16:59:47.802Z,93.20
2018-02-08T17:02:15.391Z,101.97
2018-02-08T17:04:42.959Z,102.40
2018-02-08T17:07:11.257Z,84.40
2018-02-08T17:09:38.813Z,110.60
2018-02-08T17:12:06.342Z,95.23
2018-02-08T17:14:33.882Z,91.90
2018-02-08T17:17:01.438Z,106.03
2018-02-08T17:19:28.977Z,100.20
2018-02-08T17:21:56.687Z,105.50
2018-02-08T17:24:24.217Z,92.57
2018-02-08T17:26:51.779Z,102.73
2018-02-08T17:29:19.317Z,115.83
2018-02-08T17:31:46.882Z,116.33
2018-02-08T17:34:14.414Z,115.80
2018-02-08T17:36:41.981Z,120.73
2018-02-08T17:39:09.521Z,122.77
2018-02-08T17:41:37.858Z,115.13
2018-02-08T17:44:05.392Z,118.20
2018-02-08T17:46:33.734Z,112.63
2018-02-08T17:49:02.041Z,107.63
2018-02-08T17:51:29.606Z,123.27
2018-02-08T17:53:57.157Z,109.13
2018-02-08T17:56:24.723Z,112.63
2018-02-08T17:58:52.261Z,113.67
2018-02-08T18:01:19.817Z,105.80
2018-02-08T18:03:48.130Z,116.00
2018-02-08T18:06:15.684Z,114.70
2018-02-08T18:08:43.234Z,117.33
2018-02-08T18:11:10.803Z,118.40
2018-02-08T18:13:38.338Z,110.43
2018-02-08T18:16:05.898Z,114.73
2018-02-08T18:18:33.437Z,136.80
2018-02-08T18:21:01.000Z,110.07
2018-02-08T18:23:29.316Z,123.62
2018-02-08T18:25:56.886Z,112.87
2018-02-08T18:28:24.423Z,116.67
2018-02-08T18:30:51.989Z,131.57
2018-02-08T18:33:20.295Z,118.13
2018-02-08T18:35:47.849Z,123.23
2018-02-08T18:38:15.396Z,113.50
2018-02-08T18:40:42.960Z,124.40
2018-02-08T18:43:10.566Z,115.97
2018-02-08T18:45:38.136Z,122.93
2018-02-08T18:48:06.432Z,114.10
2018-02-08T18:50:33.989Z,127.07
2018-02-08T18:53:01.531Z,132.57
2018-02-08T18:55:29.855Z,123.60
2018-02-08T18:57:57.397Z,133.77
2018-02-08T19:00:24.957Z,122.17
2018-02-08T19:02:52.489Z,120.13
2018-02-08T19:05:20.825Z,119.67
2018-02-08T19:07:48.353Z,124.07
2018-02-08T19:10:15.914Z,124.00
2018-02-08T19:12:43.459Z,124.27
2018-02-08T19:15:11.030Z,119.07
2018-02-08T19:17:38.562Z,134.83
2018-02-08T19:20:06.090Z,125.80
2018-02-08T19:22:33.647Z,126.27
2018-02-08T19:25:01.186Z,118.27
2018-02-08T19:27:28.745Z,125.87
2018-02-08T19:29:56.287Z,122.27
2018-02-08T19:32:23.847Z,129.73
2018-02-08T19:34:51.393Z,133.77
2018-02-08T19:37:19.730Z,116.03
2018-02-08T19:39:47.288Z,108.47
2018-02-08T19:42:14.848Z,114.50
2018-02-08T19:44:42.389Z,114.23
2018-02-08T19:47:10.726Z,104.40
2018-02-08T19:49:39.021Z,104.80
2018-02-08T19:52:06.583Z,97.87
2018-02-08T19:54:34.106Z,93.83
2018-02-08T19:57:01.673Z,99.37
2018-02-08T19:59:29.969Z,88.60
2018-02-08T20:01:57.525Z,105.13
2018-02-08T20:04:25.829Z,105.70
2018-02-08T20:06:53.385Z,102.63
2018-02-08T20:09:20.925Z,92.63
2018-02-08T20:11:48.499Z,98.70
2018-02-08T20:14:21.679Z,94.30
2018-02-08T20:16:49.237Z,100.50
2018-02-08T20:19:16.774Z,98.57
2018-02-08T20:21:45.102Z,109.23
2018-02-08T20:24:12.634Z,97.67
2018-02-08T20:26:40.195Z,107.17
2018-02-08T20:29:07.730Z,109.87
2018-02-08T20:31:36.063Z,91.80
2018-02-08T20:34:03.604Z,88.30
2018-02-08T20:36:31.158Z,93.20
2018-02-08T20:39:05.306Z,109.67
2018-02-08T20:41:32.875Z,97.00
2018-02-08T20:44:00.407Z,102.13
2018-02-08T20:46:27.967Z,104.37
2018-02-08T20:48:55.549Z,91.20
2018-02-08T20:51:23.178Z,105.40
2018-02-08T20:53:50.711Z,100.87
2018-02-08T20:56:19.029Z,90.20
2018-02-08T20:58:46.573Z,88.43
2018-02-08T21:01:14.127Z,100.37
2018-02-08T21:03:41.661Z,97.77
2018-02-08T21:06:09.979Z,93.27
2018-02-08T21:08:37.510Z,97.47
2018-02-08T21:11:05.844Z,96.27
2018-02-08T21:13:33.382Z,109.83
2018-02-08T21:16:00.936Z,91.80
2018-02-08T21:18:28.483Z,102.50
2018-02-08T21:20:56.042Z,94.40
2018-02-08T21:23:23.572Z,91.53
2018-02-08T21:25:51.878Z,93.77
2018-02-08T21:28:19.499Z,91.90
2018-02-08T21:30:47.034Z,91.03
2018-02-08T21:33:14.578Z,93.33
2018-02-08T21:35:42.105Z,100.30
2018-02-08T21:38:09.666Z,88.50
2018-02-08T21:40:37.967Z,80.70
2018-02-08T21:43:05.530Z,103.13
2018-02-08T21:45:33.070Z,97.20
2018-02-08T21:48:00.626Z,97.73
2018-02-08T21:50:28.924Z,101.00
2018-02-08T21:52:56.489Z,94.23
2018-02-08T21:55:24.023Z,102.97
2018-02-08T21:57:51.583Z,95.73
2018-02-08T22:00:19.886Z,100.07
2018-02-08T22:02:47.746Z,96.27
2018-02-08T22:05:15.574Z,98.60
2018-02-08T22:07:43.198Z,82.50
2018-02-08T22:10:10.728Z,95.80
2018-02-08T22:12:38.282Z,92.27
2018-02-08T22:15:05.819Z,108.13
2018-02-08T22:17:34.399Z,86.77
2018-02-08T22:20:02.702Z,90.13
2018-02-08T22:22:30.263Z,93.20
2018-02-08T22:24:57.830Z,88.03
2018-02-08T22:27:25.399Z,92.93
2018-02-08T22:29:52.944Z,105.87
2018-02-08T22:32:20.491Z,84.00
2018-02-08T22:34:48.826Z,95.10
2018-02-08T22:37:17.870Z,96.20
2018-02-08T22:39:45.438Z,100.27
2018-02-08T22:42:13.070Z,99.43
2018-02-08T22:44:41.409Z,92.37
2018-02-08T22:47:08.970Z,93.53
2018-02-08T22:49:36.574Z,81.30
2018-02-08T22:52:04.126Z,86.53
2018-02-08T22:54:32.462Z,89.47
2018-02-08T22:57:00.024Z,88.50
2018-02-08T22:59:27.651Z,93.47
2018-02-08T23:01:55.182Z,94.10
2018-02-08T23:04:22.746Z,98.33
2018-02-08T23:06:50.273Z,99.70
2018-02-08T23:09:17.850Z,92.90
2018-02-08T23:11:45.501Z,87.23
2018-02-08T23:14:13.044Z,87.03
2018-02-08T23:16:40.612Z,85.83
2018-02-08T23:19:08.141Z,90.63
2018-02-08T23:21:35.707Z,96.10
2018-02-08T23:24:03.254Z,86.73
2018-02-08T23:26:30.814Z,87.97
2018-02-08T23:28:58.362Z,93.17
2018-02-08T23:31:25.928Z,94.97
2018-02-08T23:33:53.458Z,99.53
2018-02-08T23:36:21.019Z,97.27
2018-02-08T23:38:48.564Z,101.10
2018-02-08T23:41:16.894Z,99.27
2018-02-08T23:43:44.445Z,101.43
2018-02-08T23:46:12.013Z,97.90
2018-02-08T23:48:39.550Z,97.63
2018-02-08T23:51:07.879Z,104.70
2018-02-08T23:53:35.419Z,99.13
2018-02-08T23:56:02.958Z,87.53
2018-02-08T23:58:30.709Z,93.90
